Time;durP1;ratioP1;P1;durP2;ratioP2;P2;SDS_P1;SDS_P2;PMS_P1;PMS_P2;Temp;Humidity;BMP_temperature;BMP_pressure;BME280_temperature;BME280_humidity;BME280_pressure;Samples;Min_cycle;Max_cycle;Signal;HPM_P1;HPM_P2
2023/01/24 00:02:16;;;;;;;16.60;12.50;;;;;;;;;;5063911;28;20225;-71
2023/01/24 00:04:42;;;;;;;16.05;11.93;;;;;;;;;;5063943;28;20201;-71
2023/01/24 00:07:09;;;;;;;15.50;12.02;;;;;;;;;;5063939;28;20197;-70
2023/01/24 00:09:35;;;;;;;17.92;12.40;;;;;;;;;;5063953;28;20505;-70
2023/01/24 00:12:01;;;;;;;15.98;11.85;;;;;;;;;;5063951;28;20193;-71
2023/01/24 00:14:27;;;;;;;16.55;12.90;;;;;;;;;;5063806;28;20204;-71
2023/01/24 00:16:55;;;;;;;14.65;12.35;;;;;;;;;;5063779;28;20204;-71
2023/01/24 00:19:21;;;;;;;17.50;12.23;;;;;;;;;;5063383;28;20235;-70
2023/01/24 00:21:47;;;;;;;17.23;11.70;;;;;;;;;;5063584;28;20229;-70
2023/01/24 00:24:14;;;;;;;15.63;12.52;;;;;;;;;;5063281;28;20208;-70
2023/01/24 00:26:40;;;;;;;15.07;11.85;;;;;;;;;;5063690;28;20204;-70
2023/01/24 00:29:06;;;;;;;15.40;12.23;;;;;;;;;;5062546;28;20236;-71
2023/01/24 00:31:33;;;;;;;16.17;11.90;;;;;;;;;;5063577;28;20239;-71
2023/01/24 00:34:00;;;;;;;15.77;12.35;;;;;;;;;;5063267;28;20260;-71
2023/01/24 00:36:27;;;;;;;14.38;11.88;;;;;;;;;;5063490;28;20197;-71
2023/01/24 00:38:53;;;;;;;14.82;11.77;;;;;;;;;;5063347;28;20426;-71
2023/01/24 00:41:20;;;;;;;14.80;11.85;;;;;;;;;;5063280;28;20228;-71
2023/01/24 00:43:46;;;;;;;14.80;12.32;;;;;;;;;;5063341;28;20221;-71
2023/01/24 00:46:13;;;;;;;15.90;12.52;;;;;;;;;;5063272;28;20200;-71
2023/01/24 00:48:39;;;;;;;15.93;12.68;;;;;;;;;;5062794;28;20203;-71
2023/01/24 00:51:07;;;;;;;15.45;12.20;;;;;;;;;;5063361;28;20206;-71
2023/01/24 00:53:33;;;;;;;15.73;12.27;;;;;;;;;;5063108;28;20200;-71
2023/01/24 00:55:59;;;;;;;14.43;11.52;;;;;;;;;;5063046;28;20231;-71
2023/01/24 00:58:25;;;;;;;17.95;12.80;;;;;;;;;;5062713;28;20216;-71
2023/01/24 01:00:55;;;;;;;16.88;12.60;;;;;;;;;;5062613;28;20203;-71
2023/01/24 01:03:21;;;;;;;16.38;11.98;;;;;;;;;;5063048;28;20566;-71
2023/01/24 01:05:47;;;;;;;17.13;12.77;;;;;;;;;;5062893;28;20204;-71
2023/01/24 01:08:15;;;;;;;16.52;12.23;;;;;;;;;;5062669;28;20201;-71
2023/01/24 01:10:41;;;;;;;16.52;12.32;;;;;;;;;;5062678;28;20197;-71
2023/01/24 01:13:08;;;;;;;17.08;12.43;;;;;;;;;;5062695;28;20245;-71
2023/01/24 01:15:34;;;;;;;16.73;12.95;;;;;;;;;;5062438;28;20434;-70
2023/01/24 01:18:00;;;;;;;16.88;12.48;;;;;;;;;;5062411;28;20216;-70
2023/01/24 01:20:27;;;;;;;16.15;12.27;;;;;;;;;;5062652;28;20197;-70
2023/01/24 01:22:54;;;;;;;17.15;12.45;;;;;;;;;;5062276;28;20217;-70
2023/01/24 01:25:21;;;;;;;16.55;12.32;;;;;;;;;;5062565;28;20449;-71
2023/01/24 01:27:47;;;;;;;16.13;12.38;;;;;;;;;;5062024;28;20222;-71
2023/01/24 01:30:15;;;;;;;14.43;11.93;;;;;;;;;;5062387;28;20268;-71
2023/01/24 01:32:41;;;;;;;15.13;12.40;;;;;;;;;;5062547;28;20425;-71
2023/01/24 01:35:08;;;;;;;16.63;12.60;;;;;;;;;;5062470;28;20430;-71
2023/01/24 01:37:34;;;;;;;16.77;12.88;;;;;;;;;;5062113;28;20209;-71
2023/01/24 01:40:01;;;;;;;17.40;12.40;;;;;;;;;;5062122;28;20360;-71
2023/01/24 01:42:37;;;;;;;17.42;13.23;;;;;;;;;;5062045;28;20217;-71
2023/01/24 01:45:18;;;;;;;15.57;11.93;;;;;;;;;;5062377;28;20196;-71
2023/01/24 01:47:45;;;;;;;17.13;12.77;;;;;;;;;;5061435;28;20250;-71
2023/01/24 01:50:15;;;;;;;14.48;11.82;;;;;;;;;;5061931;28;20219;-71
2023/01/24 01:52:43;;;;;;;15.60;12.20;;;;;;;;;;5062191;28;20370;-71
2023/01/24 01:55:13;;;;;;;16.42;13.25;;;;;;;;;;5061818;28;20219;-71
2023/01/24 01:57:41;;;;;;;17.42;12.32;;;;;;;;;;5062123;28;20488;-71
2023/01/24 02:00:09;;;;;;;16.42;12.60;;;;;;;;;;5062144;28;20219;-71
2023/01/24 02:02:36;;;;;;;16.50;12.40;;;;;;;;;;5061927;28;20225;-71
2023/01/24 02:05:04;;;;;;;15.57;12.90;;;;;;;;;;5061851;28;20197;-70
2023/01/24 02:07:32;;;;;;;16.38;12.50;;;;;;;;;;5061587;28;20197;-71
2023/01/24 02:09:59;;;;;;;15.70;12.05;;;;;;;;;;5061657;28;20271;-71
2023/01/24 02:12:26;;;;;;;17.25;12.80;;;;;;;;;;5061692;28;20200;-71
2023/01/24 02:17:40;;;;;;;16.65;12.27;;;;;;;;;;5061539;28;20200;-71
2023/01/24 02:20:19;;;;;;;16.65;12.70;;;;;;;;;;5061537;28;20205;-71
2023/01/24 02:22:53;;;;;;;17.67;12.60;;;;;;;;;;5061778;28;20230;-71
2023/01/24 02:25:21;;;;;;;16.67;13.13;;;;;;;;;;5061685;28;20271;-71
2023/01/24 02:27:49;;;;;;;16.83;12.75;;;;;;;;;;5061446;28;20225;-71
2023/01/24 02:30:15;;;;;;;16.77;12.15;;;;;;;;;;5061690;28;20384;-71
2023/01/24 02:32:41;;;;;;;17.33;13.15;;;;;;;;;;5061505;28;20193;-71
2023/01/24 02:35:20;;;;;;;16.45;12.57;;;;;;;;;;5061797;28;20224;-71
2023/01/24 02:37:46;;;;;;;15.85;12.23;;;;;;;;;;5061526;28;20201;-71
2023/01/24 02:40:13;;;;;;;17.08;12.35;;;;;;;;;;5061634;28;20243;-71
2023/01/24 02:42:40;;;;;;;18.70;12.80;;;;;;;;;;5061445;28;20217;-71
2023/01/24 02:45:10;;;;;;;20.60;13.48;;;;;;;;;;5061384;28;20505;-71
2023/01/24 02:47:38;;;;;;;17.88;12.43;;;;;;;;;;5061512;28;20316;-71
2023/01/24 02:50:06;;;;;;;17.95;12.60;;;;;;;;;;5061493;28;20239;-71
2023/01/24 02:55:16;;;;;;;17.95;12.75;;;;;;;;;;5065423;28;20231;-71
2023/01/24 03:00:28;;;;;;;17.58;13.15;;;;;;;;;;5065178;28;20195;-71
2023/01/24 03:02:54;;;;;;;15.80;12.95;;;;;;;;;;5064911;28;20262;-70
2023/01/24 03:05:21;;;;;;;17.52;12.75;;;;;;;;;;5064965;28;20205;-71
2023/01/24 03:07:47;;;;;;;17.95;12.32;;;;;;;;;;5065091;28;20353;-71
2023/01/24 03:10:14;;;;;;;19.30;13.25;;;;;;;;;;5065234;28;20424;-71
2023/01/24 03:34:45;;;;;;;17.95;12.82;;;;;;;;;;5064307;28;20433;-71
2023/01/24 03:37:12;;;;;;;19.88;13.15;;;;;;;;;;5064387;28;20219;-71
2023/01/24 03:39:58;;;;;;;18.50;13.23;;;;;;;;;;5064483;28;20423;-71
2023/01/24 03:42:25;;;;;;;22.65;13.80;;;;;;;;;;5064430;28;20217;-71
2023/01/24 03:44:51;;;;;;;16.90;12.63;;;;;;;;;;5064295;28;20201;-71
2023/01/24 03:47:17;;;;;;;18.88;13.27;;;;;;;;;;5064450;28;20219;-71
2023/01/24 03:52:29;;;;;;;16.83;12.40;;;;;;;;;;5064396;28;20253;-70
2023/01/24 03:54:55;;;;;;;18.05;13.20;;;;;;;;;;5064231;28;20197;-71
2023/01/24 03:57:21;;;;;;;17.50;13.20;;;;;;;;;;5064059;28;20391;-71
2023/01/24 03:59:48;;;;;;;18.75;12.30;;;;;;;;;;5064100;28;20201;-71
2023/01/24 04:02:14;;;;;;;17.35;13.02;;;;;;;;;;5064181;28;20221;-71
2023/01/24 04:07:25;;;;;;;21.15;12.93;;;;;;;;;;5063779;28;20196;-71
2023/01/24 04:09:51;;;;;;;17.55;13.60;;;;;;;;;;5063954;28;20204;-71
2023/01/24 04:12:18;;;;;;;20.27;13.35;;;;;;;;;;5063704;28;20189;-71
2023/01/24 04:14:44;;;;;;;16.20;12.68;;;;;;;;;;5063869;28;20204;-71
2023/01/24 04:17:10;;;;;;;21.00;14.07;;;;;;;;;;5063856;28;20193;-71
2023/01/24 04:19:37;;;;;;;17.15;12.57;;;;;;;;;;5063568;28;20204;-71
2023/01/24 04:22:03;;;;;;;19.20;13.43;;;;;;;;;;5063691;28;20201;-71
2023/01/24 04:24:30;;;;;;;20.00;14.07;;;;;;;;;;5063503;28;20217;-71
2023/01/24 04:26:57;;;;;;;17.25;12.85;;;;;;;;;;5063795;28;20243;-71
2023/01/24 04:29:23;;;;;;;21.52;14.35;;;;;;;;;;5063590;28;20200;-71
2023/01/24 04:31:49;;;;;;;25.45;16.65;;;;;;;;;;5063387;28;20197;-71
2023/01/24 04:34:15;;;;;;;19.35;13.80;;;;;;;;;;5063483;28;20197;-71
2023/01/24 04:36:42;;;;;;;18.23;13.27;;;;;;;;;;5063274;28;20224;-71
2023/01/24 04:39:08;;;;;;;18.17;13.40;;;;;;;;;;5063065;28;20528;-71
2023/01/24 04:41:36;;;;;;;19.25;13.55;;;;;;;;;;5063383;28;20209;-71
2023/01/24 04:44:02;;;;;;;20.80;13.32;;;;;;;;;;5063305;28;20431;-71
2023/01/24 04:46:28;;;;;;;19.92;13.82;;;;;;;;;;5063525;28;20200;-71
2023/01/24 04:48:55;;;;;;;18.95;14.00;;;;;;;;;;5062933;28;20493;-71
2023/01/24 04:51:21;;;;;;;18.95;13.63;;;;;;;;;;5062950;28;20200;-71
2023/01/24 04:53:47;;;;;;;19.20;13.77;;;;;;;;;;5063209;28;20369;-71
2023/01/24 04:56:13;;;;;;;20.00;14.05;;;;;;;;;;5063138;28;20501;-71
2023/01/24 04:58:41;;;;;;;20.60;14.25;;;;;;;;;;5062856;28;20508;-71
2023/01/24 05:01:07;;;;;;;20.52;13.57;;;;;;;;;;5063001;28;20438;-71
2023/01/24 05:03:33;;;;;;;19.55;13.60;;;;;;;;;;5062886;28;20528;-71
2023/01/24 05:06:00;;;;;;;18.50;13.38;;;;;;;;;;5062780;28;20443;-71
2023/01/24 05:08:26;;;;;;;20.83;13.90;;;;;;;;;;5062783;28;20496;-71
2023/01/24 05:10:53;;;;;;;20.08;13.85;;;;;;;;;;5062595;28;20197;-71
2023/01/24 05:13:19;;;;;;;18.98;14.05;;;;;;;;;;5062734;28;20500;-71
2023/01/24 05:15:48;;;;;;;21.50;13.40;;;;;;;;;;5062416;28;20502;-69
2023/01/24 05:18:14;;;;;;;19.25;13.68;;;;;;;;;;5062346;28;20197;-70
2023/01/24 05:20:41;;;;;;;23.70;14.25;;;;;;;;;;5062519;28;20197;-70
2023/01/24 05:23:07;;;;;;;19.20;13.85;;;;;;;;;;5062274;28;20219;-70
2023/01/24 05:25:33;;;;;;;20.65;13.70;;;;;;;;;;5062636;28;20204;-70
2023/01/24 05:27:59;;;;;;;21.42;15.02;;;;;;;;;;5062143;28;20221;-70
2023/01/24 05:30:25;;;;;;;21.20;14.35;;;;;;;;;;5062571;28;20197;-71
2023/01/24 05:32:55;;;;;;;19.48;14.00;;;;;;;;;;5062375;28;20201;-71
2023/01/24 05:35:22;;;;;;;22.15;15.75;;;;;;;;;;5062415;28;20335;-70
2023/01/24 05:37:48;;;;;;;20.55;14.27;;;;;;;;;;5062063;28;20208;-70
2023/01/24 05:40:14;;;;;;;18.23;13.15;;;;;;;;;;5062417;28;20197;-70
2023/01/24 05:42:41;;;;;;;20.83;13.27;;;;;;;;;;5062229;28;20642;-70
2023/01/24 05:45:07;;;;;;;20.17;13.93;;;;;;;;;;5062556;28;20212;-70
2023/01/24 05:47:34;;;;;;;19.83;14.13;;;;;;;;;;5062300;28;20531;-70
2023/01/24 05:50:01;;;;;;;19.55;13.75;;;;;;;;;;5062357;28;20267;-70
2023/01/24 05:52:28;;;;;;;22.33;14.40;;;;;;;;;;5062146;28;20303;-70
2023/01/24 05:54:54;;;;;;;18.52;13.82;;;;;;;;;;5062286;28;20197;-70
2023/01/24 05:57:20;;;;;;;21.67;13.95;;;;;;;;;;5061948;28;20250;-70
2023/01/24 05:59:46;;;;;;;16.65;12.77;;;;;;;;;;5061825;28;20211;-70
2023/01/24 06:02:13;;;;;;;26.00;14.77;;;;;;;;;;5061772;28;20197;-70
2023/01/24 06:04:39;;;;;;;18.95;13.75;;;;;;;;;;5061556;28;20213;-70
2023/01/24 06:07:06;;;;;;;17.83;13.32;;;;;;;;;;5061571;28;20243;-70
2023/01/24 06:09:33;;;;;;;16.20;12.63;;;;;;;;;;5061448;28;20247;-70
2023/01/24 06:11:59;;;;;;;18.23;13.18;;;;;;;;;;5061619;28;20562;-70
2023/01/24 06:14:25;;;;;;;18.13;13.32;;;;;;;;;;5061508;28;20197;-70
2023/01/24 06:16:51;;;;;;;18.70;13.02;;;;;;;;;;5061286;28;20197;-70
2023/01/24 06:19:18;;;;;;;17.05;12.90;;;;;;;;;;5061260;28;20485;-70
2023/01/24 06:21:45;;;;;;;18.13;12.80;;;;;;;;;;5061333;28;20242;-70
2023/01/24 06:24:16;;;;;;;16.95;12.95;;;;;;;;;;5061148;28;20221;-70
2023/01/24 06:26:42;;;;;;;18.52;12.98;;;;;;;;;;5061294;28;20196;-70
2023/01/24 06:29:09;;;;;;;17.50;12.48;;;;;;;;;;5064771;28;20221;-70
2023/01/24 06:31:39;;;;;;;18.45;12.80;;;;;;;;;;5065250;28;20227;-70
2023/01/24 06:34:14;;;;;;;16.88;12.35;;;;;;;;;;5065645;28;20431;-70
2023/01/24 06:36:47;;;;;;;17.17;12.88;;;;;;;;;;5060295;28;20511;-70
2023/01/24 06:39:16;;;;;;;16.58;12.10;;;;;;;;;;5062474;28;20209;-70
2023/01/24 06:41:42;;;;;;;15.95;12.70;;;;;;;;;;5063322;28;20520;-70
2023/01/24 06:44:10;;;;;;;16.17;12.25;;;;;;;;;;5067954;28;20477;-60
2023/01/24 06:46:36;;;;;;;18.00;13.20;;;;;;;;;;5059033;28;20258;-61
2023/01/24 06:49:02;;;;;;;18.35;13.07;;;;;;;;;;5063492;28;20209;-61
2023/01/24 06:51:28;;;;;;;16.02;11.98;;;;;;;;;;5081688;28;20523;-61
2023/01/24 06:53:55;;;;;;;18.48;12.43;;;;;;;;;;5078059;28;20512;-60
2023/01/24 06:56:22;;;;;;;16.38;12.18;;;;;;;;;;5064184;28;20544;-60
2023/01/24 06:58:48;;;;;;;14.93;11.93;;;;;;;;;;5073551;28;20213;-60
2023/01/24 07:01:15;;;;;;;19.23;12.60;;;;;;;;;;5070137;28;20257;-60
2023/01/24 07:03:41;;;;;;;15.55;11.07;;;;;;;;;;5076373;28;20228;-61
2023/01/24 07:06:07;;;;;;;16.70;11.80;;;;;;;;;;5070021;28;20212;-60
2023/01/24 07:08:34;;;;;;;17.77;12.60;;;;;;;;;;5080600;28;20214;-61
2023/01/24 07:11:00;;;;;;;18.75;13.27;;;;;;;;;;5075570;28;20214;-61
2023/01/24 07:13:27;;;;;;;19.05;13.07;;;;;;;;;;5079314;28;20208;-61
2023/01/24 07:15:54;;;;;;;16.58;11.55;;;;;;;;;;5075768;28;20213;-61
2023/01/24 07:18:20;;;;;;;17.77;12.75;;;;;;;;;;5080984;28;20219;-61
2023/01/24 07:20:47;;;;;;;17.38;13.10;;;;;;;;;;5063513;28;20474;-61
2023/01/24 07:23:18;;;;;;;18.35;12.25;;;;;;;;;;5067656;28;20652;-61
2023/01/24 07:25:45;;;;;;;16.55;12.85;;;;;;;;;;5082395;28;20209;-61
2023/01/24 07:28:11;;;;;;;16.50;12.52;;;;;;;;;;5079772;28;20270;-61
2023/01/24 07:30:39;;;;;;;17.70;12.10;;;;;;;;;;5069427;28;20222;-60
2023/01/24 07:33:05;;;;;;;16.35;12.07;;;;;;;;;;5066684;28;20203;-60
2023/01/24 07:35:31;;;;;;;17.20;12.20;;;;;;;;;;5075189;28;20285;-60
2023/01/24 07:37:59;;;;;;;15.95;11.52;;;;;;;;;;5065244;28;20207;-60
2023/01/24 07:40:26;;;;;;;20.77;12.98;;;;;;;;;;5082323;28;20204;-61
2023/01/24 07:42:52;;;;;;;17.80;12.02;;;;;;;;;;5077012;28;20250;-60
2023/01/24 07:45:20;;;;;;;18.30;11.70;;;;;;;;;;5068926;28;20217;-61
2023/01/24 07:47:47;;;;;;;18.67;12.93;;;;;;;;;;5065584;28;20216;-60
2023/01/24 07:50:14;;;;;;;18.73;12.38;;;;;;;;;;5078485;28;20216;-61
2023/01/24 07:52:40;;;;;;;16.35;11.93;;;;;;;;;;5079188;28;20222;-61
2023/01/24 07:55:06;;;;;;;15.50;11.40;;;;;;;;;;5079481;28;20250;-59
2023/01/24 07:57:32;;;;;;;19.40;12.07;;;;;;;;;;5077888;28;20579;-60
2023/01/24 07:59:59;;;;;;;15.90;11.80;;;;;;;;;;5074815;28;20254;-61
2023/01/24 08:02:25;;;;;;;16.35;12.25;;;;;;;;;;5074221;28;20212;-61
2023/01/24 08:04:52;;;;;;;14.68;11.00;;;;;;;;;;5065776;28;20525;-60
2023/01/24 08:07:20;;;;;;;15.00;10.95;;;;;;;;;;5084301;28;20215;-61
2023/01/24 08:09:46;;;;;;;16.45;11.20;;;;;;;;;;5065945;28;20225;-60
2023/01/24 08:12:13;;;;;;;13.20;11.10;;;;;;;;;;5064875;28;20209;-60
2023/01/24 08:14:39;;;;;;;16.83;11.48;;;;;;;;;;5072412;28;20527;-61
2023/01/24 08:17:05;;;;;;;15.10;11.05;;;;;;;;;;5065892;28;20448;-60
2023/01/24 08:19:32;;;;;;;18.40;11.38;;;;;;;;;;5068077;28;20212;-61
2023/01/24 08:22:00;;;;;;;14.70;11.32;;;;;;;;;;5078723;28;20223;-60
2023/01/24 08:24:26;;;;;;;15.63;11.25;;;;;;;;;;5078068;28;20245;-61
2023/01/24 08:26:52;;;;;;;15.30;11.23;;;;;;;;;;5069350;28;20252;-60
2023/01/24 08:29:18;;;;;;;16.77;11.50;;;;;;;;;;5078760;28;20461;-61
2023/01/24 08:31:45;;;;;;;13.90;10.55;;;;;;;;;;5064155;28;20209;-62
2023/01/24 08:34:11;;;;;;;14.98;10.80;;;;;;;;;;5080527;28;20279;-62
2023/01/24 08:36:37;;;;;;;16.67;11.35;;;;;;;;;;5065136;28;20224;-62
2023/01/24 08:39:05;;;;;;;16.58;11.75;;;;;;;;;;5057710;28;20217;-62
2023/01/24 08:41:31;;;;;;;15.65;11.43;;;;;;;;;;5073412;28;20205;-62
2023/01/24 08:43:57;;;;;;;14.10;10.93;;;;;;;;;;5089153;28;20228;-63
2023/01/24 08:46:24;;;;;;;14.48;10.73;;;;;;;;;;5064539;28;20213;-62
2023/01/24 08:48:50;;;;;;;17.15;10.85;;;;;;;;;;5060905;28;20249;-62
2023/01/24 08:51:16;;;;;;;18.08;11.35;;;;;;;;;;5076883;28;20530;-60
2023/01/24 08:53:42;;;;;;;15.77;11.02;;;;;;;;;;5082785;28;20241;-60
2023/01/24 08:56:10;;;;;;;14.77;10.80;;;;;;;;;;5070397;28;20208;-61
2023/01/24 08:58:36;;;;;;;14.18;10.30;;;;;;;;;;5074436;28;20250;-61
2023/01/24 09:01:06;;;;;;;14.27;10.35;;;;;;;;;;5072014;28;20291;-60
2023/01/24 09:03:32;;;;;;;16.92;11.60;;;;;;;;;;5069760;28;20270;-60
2023/01/24 09:05:58;;;;;;;15.38;10.93;;;;;;;;;;5076981;28;20212;-60
2023/01/24 09:08:24;;;;;;;17.63;11.07;;;;;;;;;;5068959;28;20277;-60
2023/01/24 09:10:51;;;;;;;14.55;11.27;;;;;;;;;;5080444;28;20474;-60
2023/01/24 09:13:18;;;;;;;14.20;10.57;;;;;;;;;;5084740;28;20216;-61
2023/01/24 09:15:45;;;;;;;14.18;10.95;;;;;;;;;;5075679;28;20403;-60
2023/01/24 09:18:11;;;;;;;13.57;10.48;;;;;;;;;;5078473;28;20351;-61
2023/01/24 09:20:37;;;;;;;15.70;10.88;;;;;;;;;;5068271;28;20449;-60
2023/01/24 09:23:08;;;;;;;16.17;11.32;;;;;;;;;;5070396;28;20427;-61
2023/01/24 09:25:34;;;;;;;14.25;10.57;;;;;;;;;;5080048;28;20491;-61
2023/01/24 09:28:00;;;;;;;13.93;10.65;;;;;;;;;;5083517;28;20220;-61
2023/01/24 09:30:28;;;;;;;14.38;10.82;;;;;;;;;;5076955;28;20254;-61
2023/01/24 09:32:54;;;;;;;13.10;9.70;;;;;;;;;;5073671;28;20535;-61
2023/01/24 09:35:20;;;;;;;14.30;10.38;;;;;;;;;;5072582;28;20201;-61
2023/01/24 09:37:47;;;;;;;15.10;10.57;;;;;;;;;;5066292;28;20251;-61
2023/01/24 09:40:18;;;;;;;14.35;10.43;;;;;;;;;;5068559;28;20213;-61
2023/01/24 09:42:47;;;;;;;13.18;10.00;;;;;;;;;;5064625;28;20600;-62
2023/01/24 09:45:18;;;;;;;12.93;10.15;;;;;;;;;;5075779;28;20247;-62
2023/01/24 09:47:47;;;;;;;15.60;10.77;;;;;;;;;;5069720;28;20258;-62
2023/01/24 09:50:16;;;;;;;14.27;10.73;;;;;;;;;;5067097;28;20235;-62
2023/01/24 09:52:43;;;;;;;13.43;10.38;;;;;;;;;;5070494;28;20216;-61
2023/01/24 09:55:13;;;;;;;12.85;9.55;;;;;;;;;;5073525;28;20195;-62
2023/01/24 09:57:46;;;;;;;15.40;10.73;;;;;;;;;;5070780;28;20200;-62
2023/01/24 10:00:16;;;;;;;14.20;10.32;;;;;;;;;;5066804;28;20220;-62
2023/01/24 10:02:42;;;;;;;13.15;10.48;;;;;;;;;;5068474;28;20216;-63
2023/01/24 10:05:14;;;;;;;15.13;10.80;;;;;;;;;;5072252;28;20220;-62
2023/01/24 10:07:57;;;;;;;13.30;10.23;;;;;;;;;;5061791;28;20277;-59
2023/01/24 10:10:30;;;;;;;13.55;10.80;;;;;;;;;;5078014;28;20230;-63
2023/01/24 10:13:01;;;;;;;14.48;10.30;;;;;;;;;;5076270;28;20217;-62
2023/01/24 10:15:34;;;;;;;12.35;9.73;;;;;;;;;;5071783;28;20250;-62
2023/01/24 10:18:07;;;;;;;15.80;10.27;;;;;;;;;;5069589;28;20365;-62
2023/01/24 10:20:43;;;;;;;13.90;9.25;;;;;;;;;;5071193;28;20514;-60
2023/01/24 10:23:12;;;;;;;15.75;9.70;;;;;;;;;;5075953;28;20217;-60
2023/01/24 10:25:46;;;;;;;14.10;9.80;;;;;;;;;;5068523;28;20294;-59
2023/01/24 10:28:18;;;;;;;13.77;9.25;;;;;;;;;;5071806;28;20543;-60
2023/01/24 10:30:46;;;;;;;13.93;9.85;;;;;;;;;;5074329;28;20196;-59
2023/01/24 10:33:16;;;;;;;12.65;9.70;;;;;;;;;;5073206;28;20250;-60
2023/01/24 10:35:51;;;;;;;12.32;9.15;;;;;;;;;;5059091;28;20209;-60
2023/01/24 10:38:18;;;;;;;12.98;9.35;;;;;;;;;;5079731;28;20209;-60
2023/01/24 10:40:52;;;;;;;14.25;10.77;;;;;;;;;;5067912;28;20225;-63
2023/01/24 10:43:18;;;;;;;12.95;9.18;;;;;;;;;;5075857;28;20253;-64
2023/01/24 10:45:48;;;;;;;11.88;8.93;;;;;;;;;;5065362;28;20931;-61
2023/01/24 10:48:23;;;;;;;11.02;8.82;;;;;;;;;;5063690;28;20243;-61
2023/01/24 10:50:50;;;;;;;13.77;9.05;;;;;;;;;;5065998;28;20516;-61
2023/01/24 10:53:23;;;;;;;13.40;9.77;;;;;;;;;;5063642;28;20211;-61
2023/01/24 10:55:49;;;;;;;13.80;9.95;;;;;;;;;;5073001;28;20431;-59
2023/01/24 10:58:21;;;;;;;12.23;9.10;;;;;;;;;;5064003;28;20208;-62
2023/01/24 11:00:48;;;;;;;12.23;9.52;;;;;;;;;;5082602;28;20519;-62
2023/01/24 11:03:18;;;;;;;10.25;8.30;;;;;;;;;;5081296;28;20267;-62
2023/01/24 11:05:46;;;;;;;10.45;8.48;;;;;;;;;;5079563;28;20232;-61
2023/01/24 11:08:18;;;;;;;9.57;7.90;;;;;;;;;;5073357;28;20239;-61
2023/01/24 11:10:44;;;;;;;11.30;8.88;;;;;;;;;;5070630;28;20247;-62
2023/01/24 11:13:24;;;;;;;12.10;9.05;;;;;;;;;;5081940;28;20205;-62
2023/01/24 11:15:52;;;;;;;9.88;8.27;;;;;;;;;;5063966;28;20201;-62
2023/01/24 11:18:21;;;;;;;10.20;8.20;;;;;;;;;;5069020;28;20205;-62
2023/01/24 11:20:47;;;;;;;11.35;8.63;;;;;;;;;;5084245;28;20443;-62
2023/01/24 11:23:16;;;;;;;11.68;8.75;;;;;;;;;;5082779;28;20495;-62
2023/01/24 11:25:53;;;;;;;9.98;8.50;;;;;;;;;;5073647;28;20330;-62
2023/01/24 11:28:23;;;;;;;12.15;8.88;;;;;;;;;;5071244;28;20232;-64
2023/01/24 11:30:49;;;;;;;10.40;8.98;;;;;;;;;;5078108;28;20250;-62
2023/01/24 11:33:26;;;;;;;11.57;9.10;;;;;;;;;;5071923;28;20205;-62
2023/01/24 11:35:55;;;;;;;12.02;9.07;;;;;;;;;;5071080;28;20205;-62
2023/01/24 11:38:26;;;;;;;11.80;9.15;;;;;;;;;;5063030;28;20255;-62
2023/01/24 11:41:03;;;;;;;8.75;7.85;;;;;;;;;;5074227;28;20204;-60
2023/01/24 11:43:53;;;;;;;10.70;8.80;;;;;;;;;;5080416;28;20208;-59
2023/01/24 11:46:23;;;;;;;11.25;8.35;;;;;;;;;;5063644;28;20251;-60
2023/01/24 11:48:53;;;;;;;9.20;7.95;;;;;;;;;;5074228;28;20427;-60
2023/01/24 11:51:25;;;;;;;11.68;8.60;;;;;;;;;;5068665;28;20208;-60
2023/01/24 11:53:56;;;;;;;11.32;8.82;;;;;;;;;;5080432;28;20204;-60
2023/01/24 11:56:29;;;;;;;9.45;8.38;;;;;;;;;;5078429;28;20392;-60
2023/01/24 11:59:01;;;;;;;11.07;8.02;;;;;;;;;;5078845;28;20249;-60
2023/01/24 12:01:32;;;;;;;8.90;7.78;;;;;;;;;;5084490;28;20261;-60
2023/01/24 12:04:08;;;;;;;9.32;7.88;;;;;;;;;;5063776;28;20563;-61
2023/01/24 12:06:40;;;;;;;10.27;8.40;;;;;;;;;;5070604;28;20204;-60
2023/01/24 12:09:13;;;;;;;12.20;7.47;;;;;;;;;;5064945;28;20201;-60
2023/01/24 12:11:43;;;;;;;11.02;8.23;;;;;;;;;;5074614;28;20278;-60
2023/01/24 12:14:33;;;;;;;11.63;8.05;;;;;;;;;;5076936;28;20216;-61
2023/01/24 12:17:03;;;;;;;9.18;7.68;;;;;;;;;;5053204;28;20227;-61
2023/01/24 12:19:39;;;;;;;7.90;7.13;;;;;;;;;;5067553;28;20537;-61
2023/01/24 12:22:10;;;;;;;10.07;8.38;;;;;;;;;;5075860;28;20424;-61
2023/01/24 12:24:38;;;;;;;10.25;8.18;;;;;;;;;;5079986;28;20415;-61
2023/01/24 12:27:07;;;;;;;11.30;7.60;;;;;;;;;;5073246;28;20205;-61
2023/01/24 12:29:37;;;;;;;8.68;7.20;;;;;;;;;;5075573;28;20209;-62
2023/01/24 12:32:05;;;;;;;8.73;7.03;;;;;;;;;;5070919;28;20251;-61
2023/01/24 12:34:35;;;;;;;10.48;8.35;;;;;;;;;;5077528;28;20552;-61
2023/01/24 12:37:05;;;;;;;9.75;7.57;;;;;;;;;;5068513;28;20311;-61
2023/01/24 12:39:36;;;;;;;8.48;7.13;;;;;;;;;;5063345;28;20536;-62
2023/01/24 12:42:06;;;;;;;8.07;7.28;;;;;;;;;;5069264;28;20201;-61
2023/01/24 12:44:35;;;;;;;8.98;7.38;;;;;;;;;;5072332;28;20270;-61
2023/01/24 12:47:07;;;;;;;8.10;7.30;;;;;;;;;;5069881;28;20535;-62
2023/01/24 12:49:37;;;;;;;9.07;7.63;;;;;;;;;;5075953;28;20208;-61
2023/01/24 12:52:08;;;;;;;8.60;7.70;;;;;;;;;;5076822;28;20258;-62
2023/01/24 12:54:38;;;;;;;10.70;7.75;;;;;;;;;;5076587;28;20212;-62
2023/01/24 12:57:09;;;;;;;8.82;7.45;;;;;;;;;;5077061;28;20588;-62
2023/01/24 12:59:37;;;;;;;10.45;7.63;;;;;;;;;;5096740;28;20253;-62
2023/01/24 13:02:22;;;;;;;8.93;7.40;;;;;;;;;;5096342;28;20215;-62
2023/01/24 13:04:50;;;;;;;12.02;7.38;;;;;;;;;;5076795;28;20224;-61
2023/01/24 13:07:23;;;;;;;8.07;7.00;;;;;;;;;;5075492;28;20451;-62
2023/01/24 13:09:52;;;;;;;9.32;7.72;;;;;;;;;;5076352;28;20249;-62
2023/01/24 13:12:20;;;;;;;8.32;7.07;;;;;;;;;;5075998;28;20216;-62
2023/01/24 13:14:51;;;;;;;7.70;6.68;;;;;;;;;;5075657;28;20212;-62
2023/01/24 13:17:23;;;;;;;8.95;7.28;;;;;;;;;;5075964;28;20578;-62
2023/01/24 13:19:56;;;;;;;9.43;7.32;;;;;;;;;;5075950;28;20228;-62
2023/01/24 13:22:32;;;;;;;8.57;6.70;;;;;;;;;;5075992;28;20306;-62
2023/01/24 13:25:04;;;;;;;8.27;6.93;;;;;;;;;;5076321;28;20295;-62
2023/01/24 13:27:38;;;;;;;8.35;7.15;;;;;;;;;;5075551;28;20224;-62
2023/01/24 13:30:13;;;;;;;7.13;6.35;;;;;;;;;;5071407;28;20205;-62
2023/01/24 13:32:39;;;;;;;11.63;7.22;;;;;;;;;;5077999;28;20252;-62
2023/01/24 13:35:14;;;;;;;8.95;7.03;;;;;;;;;;5096086;28;20222;-62
2023/01/24 13:37:41;;;;;;;11.38;7.75;;;;;;;;;;5094749;28;20210;-62
2023/01/24 13:40:19;;;;;;;9.52;7.13;;;;;;;;;;5096093;28;20210;-62
2023/01/24 13:42:45;;;;;;;8.93;7.45;;;;;;;;;;5095570;28;20234;-62
2023/01/24 13:45:30;;;;;;;9.45;6.88;;;;;;;;;;5079857;28;20470;-62
2023/01/24 13:47:59;;;;;;;11.43;8.40;;;;;;;;;;5074894;28;20220;-62
2023/01/24 13:50:25;;;;;;;9.27;7.18;;;;;;;;;;5079461;28;20211;-62
2023/01/24 13:52:53;;;;;;;10.48;7.82;;;;;;;;;;5096166;28;20249;-62
2023/01/24 13:55:38;;;;;;;10.30;7.53;;;;;;;;;;5095960;28;20235;-62
2023/01/24 13:58:18;;;;;;;8.75;7.70;;;;;;;;;;5095297;28;20523;-62
2023/01/24 14:00:46;;;;;;;10.35;7.35;;;;;;;;;;5095317;28;20230;-62
2023/01/24 14:03:19;;;;;;;8.95;7.75;;;;;;;;;;5095025;28;20523;-62
2023/01/24 14:05:54;;;;;;;10.48;7.68;;;;;;;;;;5095620;28;20231;-61
2023/01/24 14:08:35;;;;;;;9.55;7.68;;;;;;;;;;5071435;28;20542;-62
2023/01/24 14:11:22;;;;;;;11.25;7.25;;;;;;;;;;5075048;28;20223;-62
2023/01/24 14:13:56;;;;;;;9.23;7.45;;;;;;;;;;5071883;28;20231;-62
2023/01/24 14:16:40;;;;;;;9.48;7.80;;;;;;;;;;5094628;28;20216;-61
2023/01/24 14:19:13;;;;;;;12.23;8.30;;;;;;;;;;5095181;28;20203;-62
2023/01/24 14:21:46;;;;;;;8.32;7.45;;;;;;;;;;5095563;28;20207;-62
2023/01/24 14:24:19;;;;;;;10.77;8.35;;;;;;;;;;5095467;28;20219;-62
2023/01/24 14:26:45;;;;;;;9.10;8.00;;;;;;;;;;5095601;28;20238;-62
2023/01/24 14:29:15;;;;;;;10.68;7.88;;;;;;;;;;5095324;28;20231;-62
2023/01/24 14:31:42;;;;;;;11.57;8.75;;;;;;;;;;5080184;28;20208;-62
2023/01/24 14:34:13;;;;;;;11.80;9.38;;;;;;;;;;5095733;28;20242;-62
2023/01/24 14:36:39;;;;;;;10.73;8.27;;;;;;;;;;5095362;28;20273;-62
2023/01/24 14:39:18;;;;;;;10.43;8.43;;;;;;;;;;5094954;28;20267;-62
2023/01/24 14:41:46;;;;;;;9.88;8.25;;;;;;;;;;5095179;28;20239;-62
2023/01/24 14:44:19;;;;;;;11.13;7.78;;;;;;;;;;5095032;28;20212;-62
2023/01/24 14:46:52;;;;;;;10.15;8.73;;;;;;;;;;5094361;28;20508;-62
2023/01/24 14:49:25;;;;;;;10.55;8.50;;;;;;;;;;5096291;28;20277;-62
2023/01/24 14:51:51;;;;;;;13.25;7.88;;;;;;;;;;5085954;28;20281;-62
2023/01/24 14:54:20;;;;;;;10.70;8.20;;;;;;;;;;5078645;28;20254;-62
2023/01/24 14:56:46;;;;;;;11.50;9.32;;;;;;;;;;5078629;28;20245;-62
2023/01/24 14:59:14;;;;;;;11.00;8.48;;;;;;;;;;5078079;28;20220;-62
2023/01/24 15:01:40;;;;;;;11.52;8.15;;;;;;;;;;5077952;28;20594;-62
2023/01/24 15:04:19;;;;;;;11.27;8.35;;;;;;;;;;5078727;28;20309;-62
2023/01/24 15:07:02;;;;;;;12.25;7.97;;;;;;;;;;5077833;28;20235;-62
2023/01/24 15:09:29;;;;;;;11.88;9.25;;;;;;;;;;5082825;28;20551;-62